Time;durP1;ratioP1;P1;durP2;ratioP2;P2;SDS_P1;SDS_P2;PMS_P1;PMS_P2;Temp;Humidity;BMP_temperature;BMP_pressure;BME280_temperature;BME280_humidity;BME280_pressure;Samples;Min_cycle;Max_cycle;Signal;HPM_P1;HPM_P2
2023/03/31 00:00:35;;;;;;;7.25;3.05;;;9.90;99.90;;;;;;5002852;28;20038;-80
2023/03/31 00:03:01;;;;;;;13.30;2.88;;;9.90;99.90;;;;;;5003988;28;20164;-83
2023/03/31 00:05:27;;;;;;;5.15;1.50;;;9.90;99.90;;;;;;5004294;28;20038;-81
2023/03/31 00:07:59;;;;;;;9.27;3.10;;;9.90;99.90;;;;;;5005157;28;20042;-84
2023/03/31 00:10:26;;;;;;;;;;;9.90;99.90;;;;;;5004588;28;20116;-82
2023/03/31 00:12:52;;;;;;;3.08;2.30;;;9.90;99.90;;;;;;5003566;28;19922;-80
2023/03/31 00:15:18;;;;;;;8.82;2.45;;;9.90;99.90;;;;;;5003653;28;20072;-82
2023/03/31 00:17:43;;;;;;;5.13;3.13;;;9.90;99.90;;;;;;5004899;28;20116;-84
2023/03/31 00:20:11;;;;;;;11.30;2.50;;;10.00;99.90;;;;;;5003365;28;20472;-82
2023/03/31 00:22:37;;;;;;;6.10;2.25;;;10.00;99.90;;;;;;5005011;28;20263;-84
2023/03/31 00:25:04;;;;;;;5.10;3.17;;;10.00;99.90;;;;;;5004664;28;20121;-84
2023/03/31 00:27:30;;;;;;;6.03;3.00;;;10.00;99.90;;;;;;5014229;28;20103;-80
2023/03/31 00:29:55;;;;;;;4.38;2.75;;;10.00;99.90;;;;;;5023856;28;20034;-84
2023/03/31 00:32:21;;;;;;;8.95;1.90;;;10.00;99.90;;;;;;5024136;28;20397;-80
2023/03/31 00:34:46;;;;;;;8.80;2.47;;;10.00;99.90;;;;;;5039627;28;20045;-83
2023/03/31 00:37:13;;;;;;;9.38;2.45;;;9.90;99.90;;;;;;5023927;28;20567;-78
2023/03/31 00:39:40;;;;;;;15.75;2.08;;;10.00;99.90;;;;;;5023259;28;20636;-83
2023/03/31 00:42:07;;;;;;;6.35;2.28;;;9.90;99.90;;;;;;5023824;28;20051;-84
2023/03/31 00:44:38;;;;;;;3.22;1.75;;;9.90;99.90;;;;;;5021914;28;20099;-82
2023/03/31 00:47:11;;;;;;;9.13;1.95;;;9.90;99.90;;;;;;5016744;28;20061;-82
2023/03/31 00:49:43;;;;;;;4.65;2.25;;;9.90;99.90;;;;;;5004556;28;20046;-84
2023/03/31 00:52:12;;;;;;;14.25;3.28;;;9.80;99.90;;;;;;5003120;28;20053;-85
2023/03/31 00:54:39;;;;;;;13.43;1.85;;;9.80;99.90;;;;;;5004256;28;20050;-80
2023/03/31 00:57:07;;;;;;;6.35;3.00;;;9.70;99.90;;;;;;5004729;28;20100;-84
2023/03/31 00:59:41;;;;;;;9.95;2.50;;;9.70;99.90;;;;;;5002098;28;20046;-81
2023/03/31 01:02:08;;;;;;;5.55;3.63;;;9.70;99.90;;;;;;5003941;28;20113;-79
2023/03/31 01:04:49;;;;;;;7.93;2.13;;;9.60;99.90;;;;;;5003544;28;20412;-83
2023/03/31 01:07:29;;;;;;;5.25;1.77;;;9.60;99.90;;;;;;5002497;28;20128;-80
2023/03/31 01:09:59;;;;;;;7.15;2.85;;;9.50;99.90;;;;;;4986931;28;20113;-83
2023/03/31 01:12:26;;;;;;;7.53;2.17;;;9.50;99.90;;;;;;5002498;28;20045;-80
2023/03/31 01:14:52;;;;;;;8.55;2.95;;;9.50;99.90;;;;;;5002385;28;20724;-84
2023/03/31 01:17:20;;;;;;;2.75;1.95;;;9.40;99.90;;;;;;5003872;28;20132;-81
2023/03/31 01:19:56;;;;;;;8.65;2.70;;;9.40;99.90;;;;;;5003907;28;20285;-83
2023/03/31 01:22:45;;;;;;;3.40;1.45;;;9.30;99.90;;;;;;5003073;28;20061;-77
2023/03/31 01:25:41;;;;;;;3.85;1.42;;;9.30;99.90;;;;;;5002381;28;20582;-83
2023/03/31 01:28:22;;;;;;;4.75;1.85;;;9.30;99.90;;;;;;5002658;28;20054;-84
2023/03/31 01:30:53;;;;;;;11.27;2.45;;;9.30;99.90;;;;;;5003446;28;20047;-80
2023/03/31 01:33:31;;;;;;;6.60;3.23;;;9.20;99.90;;;;;;5004168;28;20137;-83
2023/03/31 01:36:41;;;;;;;6.80;3.10;;;9.20;99.90;;;;;;4987066;28;20172;-82
2023/03/31 01:39:44;;;;;;;5.60;3.03;;;9.20;99.90;;;;;;5002264;28;20042;-81
2023/03/31 01:42:17;;;;;;;6.20;2.38;;;9.20;99.90;;;;;;5003700;28;20049;-81
2023/03/31 01:44:57;;;;;;;9.10;2.78;;;9.20;99.90;;;;;;5003244;28;20056;-80
2023/03/31 01:47:39;;;;;;;4.65;2.22;;;9.20;99.90;;;;;;4994359;28;20488;-80
2023/03/31 01:50:17;;;;;;;7.97;2.25;;;9.20;99.90;;;;;;4986550;28;20078;-77
2023/03/31 01:52:52;;;;;;;10.30;2.97;;;9.20;99.90;;;;;;4988147;28;20050;-84
2023/03/31 01:55:24;;;;;;;2.88;1.20;;;9.20;99.90;;;;;;4986480;28;20042;-83
2023/03/31 01:57:56;;;;;;;8.35;1.80;;;9.20;99.90;;;;;;4988151;28;20117;-83
2023/03/31 02:00:32;;;;;;;3.40;1.77;;;9.20;99.90;;;;;;4986747;28;20177;-84
2023/03/31 02:03:28;;;;;;;15.57;2.33;;;9.30;99.90;;;;;;5005333;28;20042;-83
2023/03/31 02:05:57;;;;;;;6.65;2.20;;;9.30;99.90;;;;;;5006315;28;20054;-77
2023/03/31 02:08:35;;;;;;;7.32;3.30;;;9.30;99.90;;;;;;5006933;28;20045;-83
2023/03/31 02:11:01;;;;;;;7.93;2.08;;;9.40;99.90;;;;;;5007247;28;20676;-84
2023/03/31 02:13:28;;;;;;;10.60;2.25;;;9.40;99.90;;;;;;5005075;28;20054;-80
2023/03/31 02:16:01;;;;;;;7.78;1.83;;;9.40;99.90;;;;;;5006983;28;20111;-83
2023/03/31 02:18:32;;;;;;;12.52;2.83;;;9.50;99.90;;;;;;4989663;28;20072;-83
2023/03/31 02:20:59;;;;;;;9.65;2.38;;;9.50;99.90;;;;;;5007453;28;20408;-80
2023/03/31 02:23:30;;;;;;;6.95;2.13;;;9.50;99.90;;;;;;5007626;28;20050;-83
2023/03/31 02:26:27;;;;;;;13.65;2.78;;;9.50;99.90;;;;;;5007263;28;20048;-82
2023/03/31 02:28:53;;;;;;;5.10;2.05;;;9.50;99.90;;;;;;5005362;28;20177;-78
2023/03/31 02:31:28;;;;;;;8.02;2.03;;;9.50;99.90;;;;;;5006405;28;20128;-80
2023/03/31 02:33:53;;;;;;;5.05;2.05;;;9.50;99.90;;;;;;5006723;28;20046;-81
2023/03/31 02:36:20;;;;;;;14.10;2.78;;;9.40;99.90;;;;;;5005852;28;20532;-83
2023/03/31 02:39:08;;;;;;;5.35;2.20;;;9.50;99.90;;;;;;5006537;28;20056;-81
2023/03/31 02:41:35;;;;;;;4.75;2.60;;;9.40;99.90;;;;;;5004838;28;20163;-83
2023/03/31 02:44:00;;;;;;;7.38;2.25;;;9.40;99.90;;;;;;5005112;28;20046;-80
2023/03/31 02:46:28;;;;;;;5.60;2.58;;;9.50;99.90;;;;;;5006105;28;20048;-83
2023/03/31 02:48:56;;;;;;;3.58;1.50;;;9.50;99.90;;;;;;4986877;28;20050;-80
2023/03/31 02:51:34;;;;;;;8.02;2.03;;;9.50;99.90;;;;;;4986540;28;20089;-83
2023/03/31 02:54:06;;;;;;;10.57;1.83;;;9.50;99.90;;;;;;4985861;28;20047;-78
2023/03/31 02:56:53;;;;;;;5.78;3.28;;;9.50;99.90;;;;;;4987317;28;20109;-83
2023/03/31 02:59:40;;;;;;;7.40;3.05;;;9.50;99.90;;;;;;4996856;28;20049;-83
2023/03/31 03:02:29;;;;;;;10.70;2.22;;;9.50;99.90;;;;;;5006144;28;20061;-79
2023/03/31 03:05:33;;;;;;;2.28;1.38;;;9.50;99.90;;;;;;5005687;28;20041;-80
2023/03/31 03:08:25;;;;;;;1.90;1.23;;;9.50;99.90;;;;;;5005364;28;20054;-82
2023/03/31 03:11:10;;;;;;;3.83;1.83;;;9.50;99.90;;;;;;5006054;28;20563;-81
2023/03/31 03:13:44;;;;;;;3.92;1.52;;;9.50;99.90;;;;;;5005303;28;20062;-83
2023/03/31 03:16:17;;;;;;;4.13;3.05;;;9.50;99.90;;;;;;5005994;28;20053;-83
2023/03/31 03:18:44;;;;;;;8.63;2.22;;;9.50;99.90;;;;;;5005861;28;20046;-82
2023/03/31 03:21:09;;;;;;;2.90;1.38;;;9.50;99.90;;;;;;5005784;28;20053;-78
2023/03/31 03:23:36;;;;;;;4.85;1.70;;;9.50;99.90;;;;;;5005846;28;20049;-82
2023/03/31 03:26:01;;;;;;;2.22;1.65;;;9.50;99.90;;;;;;5005564;28;20045;-78
2023/03/31 03:28:27;;;;;;;5.07;1.83;;;9.40;99.90;;;;;;5005387;28;20100;-80
2023/03/31 03:30:52;;;;;;;1.73;0.90;;;9.50;99.90;;;;;;5005964;28;20054;-83
2023/03/31 03:33:18;;;;;;;7.03;1.88;;;9.50;99.90;;;;;;5006015;28;20053;-82
2023/03/31 03:35:44;;;;;;;7.22;1.83;;;9.50;99.90;;;;;;5004038;28;20049;-82
2023/03/31 03:38:09;;;;;;;8.27;2.28;;;9.50;99.90;;;;;;5004430;28;20456;-84
2023/03/31 03:40:35;;;;;;;7.65;1.55;;;9.50;99.90;;;;;;5005528;28;20122;-80
2023/03/31 03:43:00;;;;;;;13.25;2.92;;;9.50;99.90;;;;;;5005133;28;20479;-83
2023/03/31 03:45:26;;;;;;;6.50;1.95;;;9.50;99.90;;;;;;5005145;28;20049;-83
2023/03/31 03:47:51;;;;;;;2.80;1.05;;;9.50;99.90;;;;;;5004172;28;20583;-80
2023/03/31 03:50:17;;;;;;;7.00;2.00;;;9.50;99.90;;;;;;5005002;28;20136;-80
2023/03/31 03:52:43;;;;;;;3.22;2.20;;;9.50;99.90;;;;;;5005473;28;20554;-81
2023/03/31 03:55:10;;;;;;;4.28;1.58;;;9.50;99.90;;;;;;5004626;28;20133;-83
2023/03/31 03:57:36;;;;;;;4.22;2.60;;;9.50;99.90;;;;;;5005249;28;20511;-81
2023/03/31 04:00:07;;;;;;;6.00;2.35;;;9.50;99.90;;;;;;5003910;28;20041;-82
2023/03/31 04:02:32;;;;;;;5.90;2.58;;;9.50;99.90;;;;;;5003960;28;20057;-78
2023/03/31 04:04:58;;;;;;;1.50;1.40;;;9.50;99.90;;;;;;5005339;28;20496;-82
2023/03/31 04:07:23;;;;;;;2.45;1.55;;;9.50;99.90;;;;;;5005310;28;20448;-82
2023/03/31 04:09:49;;;;;;;12.10;2.22;;;9.50;99.90;;;;;;5005081;28;20111;-79
2023/03/31 04:12:15;;;;;;;3.60;2.13;;;9.50;99.90;;;;;;5002911;28;20048;-82
2023/03/31 04:14:40;;;;;;;3.38;1.70;;;9.50;99.90;;;;;;5003753;28;20140;-79
2023/03/31 04:17:06;;;;;;;5.88;2.22;;;9.50;99.90;;;;;;5004938;28;20397;-81
2023/03/31 04:19:31;;;;;;;2.90;1.75;;;9.50;99.90;;;;;;5003436;28;20111;-82
2023/03/31 04:22:01;;;;;;;4.57;2.20;;;9.50;99.90;;;;;;5005031;28;20046;-80
2023/03/31 04:24:31;;;;;;;4.68;2.88;;;9.50;99.90;;;;;;5005707;28;20107;-82
2023/03/31 04:26:58;;;;;;;3.35;3.05;;;9.50;99.90;;;;;;5005102;28;20075;-77
2023/03/31 04:29:25;;;;;;;1.67;1.38;;;9.60;99.90;;;;;;5003729;28;20046;-81
2023/03/31 04:31:58;;;;;;;3.20;1.65;;;9.50;99.90;;;;;;5004652;28;20968;-81
2023/03/31 04:34:25;;;;;;;;;;;9.50;99.90;;;;;;5004757;28;20038;-80
2023/03/31 04:36:54;;;;;;;3.58;2.28;;;9.60;99.90;;;;;;5004826;28;20113;-81
2023/03/31 04:39:29;;;;;;;2.00;1.65;;;9.60;99.90;;;;;;5004165;28;20132;-81
2023/03/31 04:41:55;;;;;;;2.50;1.80;;;9.60;99.90;;;;;;5003141;28;20095;-79
2023/03/31 04:44:21;;;;;;;6.90;1.52;;;9.60;99.90;;;;;;5003930;28;20061;-82
2023/03/31 04:46:47;;;;;;;2.28;1.98;;;9.60;99.90;;;;;;5004405;28;20116;-79
2023/03/31 04:49:12;;;;;;;9.75;2.80;;;9.60;99.90;;;;;;5004174;28;20122;-83
2023/03/31 04:51:38;;;;;;;4.53;2.40;;;9.60;99.90;;;;;;5003892;28;20077;-83
2023/03/31 04:54:04;;;;;;;8.60;2.03;;;9.60;99.90;;;;;;4998832;28;20536;-80
2023/03/31 04:56:29;;;;;;;6.50;2.75;;;9.60;99.90;;;;;;4984285;28;20050;-79
2023/03/31 04:58:55;;;;;;;3.08;1.15;;;9.60;99.90;;;;;;4985011;28;20492;-80
2023/03/31 05:01:21;;;;;;;3.95;2.10;;;9.60;99.90;;;;;;5004319;28;20057;-80
2023/03/31 05:03:47;;;;;;;5.55;2.28;;;9.50;99.90;;;;;;5003991;28;20117;-82
2023/03/31 05:06:14;;;;;;;5.85;2.88;;;9.60;99.90;;;;;;4998674;28;20053;-82
2023/03/31 05:08:40;;;;;;;2.92;1.98;;;9.60;99.90;;;;;;4996858;28;20056;-91
2023/03/31 05:11:05;;;;;;;4.32;1.88;;;9.60;99.90;;;;;;4995378;28;20046;-83
2023/03/31 05:13:31;;;;;;;4.57;2.15;;;9.60;99.90;;;;;;4994008;28;20069;-82
2023/03/31 05:15:57;;;;;;;9.32;2.78;;;9.60;99.90;;;;;;5000946;28;20416;-80
2023/03/31 05:18:23;;;;;;;3.67;2.05;;;9.60;99.90;;;;;;4998820;28;20038;-82
2023/03/31 05:20:48;;;;;;;4.93;2.40;;;9.60;99.90;;;;;;4991170;28;20146;-83
2023/03/31 05:23:14;;;;;;;5.28;2.53;;;9.60;99.90;;;;;;4997125;28;20053;-83
2023/03/31 05:25:41;;;;;;;4.57;2.53;;;9.60;99.90;;;;;;5001597;28;20501;-83
2023/03/31 05:28:08;;;;;;;7.57;2.70;;;9.60;99.90;;;;;;4998836;28;20116;-84
2023/03/31 05:30:34;;;;;;;6.03;2.30;;;9.60;99.90;;;;;;5003948;28;20065;-82
2023/03/31 05:33:00;;;;;;;7.70;2.58;;;9.60;99.90;;;;;;5003945;28;20050;-82
2023/03/31 05:35:25;;;;;;;3.75;2.40;;;9.60;99.90;;;;;;5007698;28;20034;-81
2023/03/31 05:37:51;;;;;;;4.55;1.88;;;9.60;99.90;;;;;;5007847;28;20128;-86
2023/03/31 05:40:17;;;;;;;2.95;1.63;;;9.60;99.90;;;;;;5007683;28;20042;-86
2023/03/31 05:42:42;;;;;;;2.95;2.10;;;9.60;99.90;;;;;;5005123;28;20535;-82
2023/03/31 05:45:08;;;;;;;6.82;1.80;;;9.60;99.90;;;;;;5002725;28;20467;-86
2023/03/31 05:47:34;;;;;;;3.55;2.53;;;9.60;99.90;;;;;;5001005;28;20034;-82
2023/03/31 05:49:59;;;;;;;10.00;2.88;;;9.60;99.90;;;;;;5007385;28;20038;-80
2023/03/31 05:52:25;;;;;;;2.83;1.67;;;9.60;99.90;;;;;;5001744;28;20124;-78
2023/03/31 05:54:51;;;;;;;3.75;2.20;;;9.60;99.90;;;;;;5001482;28;20078;-79
2023/03/31 05:57:16;;;;;;;2.65;1.85;;;9.60;99.90;;;;;;4999636;28;20085;-77
2023/03/31 05:59:42;;;;;;;5.25;2.40;;;9.60;99.90;;;;;;4988827;28;20409;-76
2023/03/31 06:02:11;;;;;;;2.72;2.38;;;9.70;99.90;;;;;;4974720;28;20046;-76
2023/03/31 06:04:37;;;;;;;7.22;2.63;;;9.70;99.90;;;;;;4975065;28;20049;-76
2023/03/31 06:07:04;;;;;;;7.07;2.55;;;9.70;99.90;;;;;;4986442;28;20266;-76
2023/03/31 06:09:29;;;;;;;2.58;2.38;;;9.70;99.90;;;;;;5004390;28;20038;-76
2023/03/31 06:11:55;;;;;;;3.33;2.10;;;9.70;99.90;;;;;;5005745;28;20057;-76
2023/03/31 06:14:21;;;;;;;4.80;2.47;;;9.70;99.90;;;;;;5001063;28;20069;-76
2023/03/31 06:16:47;;;;;;;3.88;2.70;;;9.70;99.90;;;;;;4995800;28;20120;-76
2023/03/31 06:19:13;;;;;;;4.10;2.35;;;9.70;99.90;;;;;;5002053;28;20049;-76
2023/03/31 06:21:38;;;;;;;2.92;2.65;;;9.70;99.90;;;;;;5000219;28;20042;-77
2023/03/31 06:24:04;;;;;;;3.25;2.53;;;9.70;99.90;;;;;;5003928;28;20057;-78
2023/03/31 06:26:30;;;;;;;4.15;1.73;;;9.70;99.90;;;;;;5010052;28;20680;-80
2023/03/31 06:28:56;;;;;;;4.68;2.05;;;9.70;99.90;;;;;;5013017;28;20133;-79
2023/03/31 06:31:23;;;;;;;3.72;2.00;;;9.70;99.90;;;;;;5005445;28;20213;-79
2023/03/31 06:33:50;;;;;;;4.22;1.75;;;9.70;99.90;;;;;;5004965;28;20049;-80
2023/03/31 06:36:17;;;;;;;2.35;2.13;;;9.70;99.90;;;;;;5002693;28;20037;-79
2023/03/31 06:38:43;;;;;;;2.40;1.75;;;9.70;99.90;;;;;;4988486;28;20068;-78
2023/03/31 06:41:12;;;;;;;3.80;1.73;;;9.80;99.90;;;;;;5003847;28;20669;-79
2023/03/31 06:43:38;;;;;;;2.08;1.45;;;9.80;99.90;;;;;;5003823;28;20124;-77
2023/03/31 06:46:04;;;;;;;2.72;1.52;;;9.80;99.90;;;;;;5003714;28;20595;-80
2023/03/31 06:48:30;;;;;;;2.42;1.65;;;9.80;99.90;;;;;;5014459;28;20041;-78
2023/03/31 06:50:59;;;;;;;2.17;1.65;;;9.80;99.90;;;;;;4999482;28;20456;-79
2023/03/31 06:53:25;;;;;;;3.15;1.50;;;9.80;99.90;;;;;;5004263;28;20038;-79
2023/03/31 06:55:50;;;;;;;1.10;0.73;;;9.80;99.90;;;;;;5003773;28;20564;-80
2023/03/31 06:58:16;;;;;;;2.25;1.60;;;9.80;99.90;;;;;;5004462;28;20513;-81
2023/03/31 07:00:44;;;;;;;2.33;1.48;;;9.80;99.90;;;;;;4999367;28;20042;-77
2023/03/31 07:03:09;;;;;;;6.63;2.20;;;9.80;99.90;;;;;;5001123;28;20507;-81
2023/03/31 07:05:35;;;;;;;1.27;0.98;;;9.80;99.90;;;;;;4995074;28;20038;-81
2023/03/31 07:08:00;;;;;;;3.40;1.90;;;9.90;99.90;;;;;;4996996;28;20423;-80
2023/03/31 07:10:30;;;;;;;4.70;1.30;;;9.80;99.90;;;;;;5004562;28;20453;-83
2023/03/31 07:12:55;;;;;;;2.40;0.77;;;9.80;99.90;;;;;;4989797;28;20389;-78
2023/03/31 07:15:22;;;;;;;3.55;1.38;;;9.80;99.90;;;;;;5001944;28;20112;-81
2023/03/31 07:17:49;;;;;;;1.00;0.75;;;9.80;99.90;;;;;;5004491;28;20081;-76
2023/03/31 07:20:17;;;;;;;2.90;0.65;;;9.80;99.90;;;;;;4992802;28;20057;-79
2023/03/31 07:22:44;;;;;;;2.75;1.20;;;9.80;99.90;;;;;;5003808;28;20077;-79
2023/03/31 07:25:12;;;;;;;2.15;0.73;;;9.90;99.90;;;;;;5002992;28;20038;-79
2023/03/31 07:27:38;;;;;;;1.17;0.77;;;9.90;99.90;;;;;;5004128;28;20117;-81
2023/03/31 07:30:06;;;;;;;5.53;1.77;;;9.90;99.90;;;;;;5004224;28;20659;-80
2023/03/31 07:32:32;;;;;;;1.55;1.02;;;9.90;99.90;;;;;;5003935;28;20045;-81
2023/03/31 07:34:58;;;;;;;2.25;1.20;;;9.90;99.90;;;;;;5004842;28;20037;-79
2023/03/31 07:37:24;;;;;;;4.35;1.02;;;9.90;99.90;;;;;;5003738;28;20416;-81
2023/03/31 07:39:50;;;;;;;3.10;0.70;;;9.90;99.90;;;;;;5003014;28;20045;-81
2023/03/31 07:42:15;;;;;;;6.10;1.15;;;9.90;99.90;;;;;;5003525;28;20049;-81
2023/03/31 07:44:41;;;;;;;1.48;1.00;;;9.90;99.90;;;;;;5004044;28;20048;-81
2023/03/31 07:47:06;;;;;;;1.05;0.80;;;9.90;99.90;;;;;;4997609;28;20034;-81
2023/03/31 07:49:33;;;;;;;0.85;0.85;;;9.90;99.90;;;;;;5000963;28;20129;-79
2023/03/31 07:51:59;;;;;;;1.08;0.98;;;9.90;99.90;;;;;;5003508;28;20553;-81
2023/03/31 07:54:25;;;;;;;2.72;0.52;;;9.90;99.90;;;;;;5004309;28;20179;-80
2023/03/31 07:56:51;;;;;;;1.77;1.17;;;9.90;99.90;;;;;;5019190;28;20037;-79
2023/03/31 07:59:17;;;;;;;0.73;0.57;;;9.90;99.90;;;;;;5003342;28;20346;-77
2023/03/31 08:01:42;;;;;;;2.58;1.83;;;9.90;99.90;;;;;;5003804;28;20038;-79
2023/03/31 08:04:10;;;;;;;1.08;0.70;;;9.90;99.90;;;;;;5018250;28;20361;-78
2023/03/31 08:06:36;;;;;;;1.50;0.80;;;10.00;99.90;;;;;;5003402;28;20049;-82
2023/03/31 08:09:01;;;;;;;4.95;2.10;;;9.90;99.90;;;;;;5004181;28;20037;-78
2023/03/31 08:11:27;;;;;;;2.53;1.15;;;10.00;99.90;;;;;;5005075;28;20420;-81
2023/03/31 08:13:53;;;;;;;7.82;1.00;;;10.00;99.90;;;;;;5002956;28;20057;-81
2023/03/31 08:16:18;;;;;;;5.05;1.75;;;10.00;99.90;;;;;;5004266;28;20053;-80
2023/03/31 08:18:45;;;;;;;2.60;1.33;;;10.00;99.90;;;;;;5003293;28;20034;-81
2023/03/31 08:21:10;;;;;;;1.52;1.27;;;10.00;99.90;;;;;;5002444;28;20050;-77
2023/03/31 08:23:36;;;;;;;4.55;1.77;;;10.00;99.90;;;;;;5002867;28;20448;-81
2023/03/31 08:26:09;;;;;;;2.78;1.52;;;10.10;99.90;;;;;;5002567;28;20046;-81
2023/03/31 08:28:35;;;;;;;1.48;1.38;;;10.10;99.90;;;;;;5001725;28;20081;-81
2023/03/31 08:31:09;;;;;;;2.50;1.25;;;10.10;99.90;;;;;;5003647;28;20132;-78
2023/03/31 08:33:36;;;;;;;2.00;1.25;;;10.10;99.90;;;;;;5004287;28;20041;-75
2023/03/31 08:36:07;;;;;;;1.70;1.13;;;10.20;99.90;;;;;;5003910;28;20041;-81
2023/03/31 08:38:36;;;;;;;3.13;2.10;;;10.20;99.90;;;;;;5003732;28;20049;-79
2023/03/31 08:41:04;;;;;;;3.13;1.27;;;10.20;99.90;;;;;;5004413;28;20041;-79
2023/03/31 08:43:42;;;;;;;3.92;1.63;;;10.30;99.90;;;;;;5000450;28;20052;-78
2023/03/31 08:46:12;;;;;;;2.08;1.23;;;10.30;99.90;;;;;;4978618;28;20167;-82
2023/03/31 08:48:47;;;;;;;1.55;1.45;;;10.30;99.90;;;;;;5001943;28;20100;-76
2023/03/31 08:51:17;;;;;;;1.95;0.85;;;10.30;99.90;;;;;;5001751;28;20097;-78
2023/03/31 08:54:06;;;;;;;3.60;2.13;;;10.40;99.90;;;;;;5002302;28;20046;-81
2023/03/31 08:56:40;;;;;;;2.40;1.63;;;10.50;99.90;;;;;;5001831;28;20038;-81
2023/03/31 08:59:27;;;;;;;0.93;0.90;;;10.50;99.90;;;;;;5001334;28;20054;-82
2023/03/31 09:01:59;;;;;;;3.22;0.90;;;10.60;99.90;;;;;;5002702;28;20038;-81
2023/03/31 09:04:33;;;;;;;2.13;1.85;;;10.60;99.90;;;;;;5001720;28;20053;-78
2023/03/31 09:07:31;;;;;;;1.13;0.80;;;10.60;99.90;;;;;;5003189;28;20046;-79
2023/03/31 09:10:11;;;;;;;2.92;2.00;;;10.60;99.90;;;;;;5001755;28;20046;-79
2023/03/31 09:12:46;;;;;;;2.28;1.27;;;10.70;99.90;;;;;;5000526;28;20053;-80
2023/03/31 09:15:24;;;;;;;3.63;1.67;;;10.70;99.90;;;;;;5002257;28;20137;-79
2023/03/31 09:17:54;;;;;;;1.75;1.30;;;10.80;99.90;;;;;;5002770;28;20045;-78
2023/03/31 09:20:27;;;;;;;1.40;1.05;;;10.80;99.90;;;;;;5003308;28;20050;-82
2023/03/31 09:23:06;;;;;;;2.80;1.08;;;10.80;99.90;;;;;;5002352;28;20077;-80
2023/03/31 09:25:36;;;;;;;2.65;1.50;;;10.80;99.90;;;;;;5001605;28;20052;-79
2023/03/31 09:28:07;;;;;;;2.13;0.75;;;10.90;99.90;;;;;;4983794;28;20049;-80
2023/03/31 09:30:35;;;;;;;3.53;0.80;;;11.00;99.90;;;;;;5001028;28;20350;-79
2023/03/31 09:33:14;;;;;;;4.20;0.63;;;11.00;99.90;;;;;;5001649;28;20061;-79
2023/03/31 09:35:40;;;;;;;4.55;1.42;;;11.10;99.90;;;;;;5001264;28;20042;-80
2023/03/31 09:38:06;;;;;;;4.60;1.08;;;11.10;99.90;;;;;;5002938;28;20068;-81
2023/03/31 09:40:33;;;;;;;2.85;0.50;;;11.10;99.90;;;;;;5003105;28;20088;-79
2023/03/31 09:43:03;;;;;;;2.30;0.70;;;11.10;99.90;;;;;;5001094;28;20141;-81
2023/03/31 09:45:30;;;;;;;1.35;0.68;;;11.20;99.90;;;;;;5001825;28;20050;-80
2023/03/31 09:48:13;;;;;;;1.05;0.73;;;11.20;99.90;;;;;;4990414;28;20038;-78
2023/03/31 09:50:51;;;;;;;0.73;0.60;;;11.20;99.90;;;;;;4996727;28;20041;-78
2023/03/31 09:53:47;;;;;;;1.88;1.17;;;11.30;99.90;;;;;;5002488;28;20042;-80
2023/03/31 09:56:13;;;;;;;1.02;0.98;;;11.20;99.90;;;;;;5002519;28;20121;-82
2023/03/31 09:58:45;;;;;;;0.93;0.63;;;11.30;99.90;;;;;;5000806;28;20125;-80
2023/03/31 10:01:12;;;;;;;;;;;11.20;99.90;;;;;;5003096;28;20056;-82
2023/03/31 10:03:49;;;;;;;2.63;0.98;;;11.20;99.90;;;;;;5002777;28;19929;-80
2023/03/31 10:06:16;;;;;;;1.50;1.27;;;11.20;99.90;;;;;;5001072;28;20045;-83
2023/03/31 10:08:50;;;;;;;1.42;1.10;;;11.10;99.90;;;;;;5002745;28;20133;-79
2023/03/31 10:11:16;;;;;;;2.25;1.08;;;11.10;99.90;;;;;;5005289;28;20034;-81
2023/03/31 10:14:05;;;;;;;0.70;0.70;;;11.10;99.90;;;;;;5004680;28;20552;-79
2023/03/31 10:16:41;;;;;;;2.13;0.80;;;11.10;99.90;;;;;;5006234;28;20045;-80
2023/03/31 10:19:21;;;;;;;1.13;1.00;;;11.10;99.90;;;;;;5005249;28;20736;-79
2023/03/31 10:21:54;;;;;;;1.42;1.05;;;11.10;99.90;;;;;;5005227;28;20124;-77
2023/03/31 10:24:20;;;;;;;1.85;1.02;;;11.20;99.90;;;;;;5005990;28;20433;-82
2023/03/31 10:26:48;;;;;;;2.97;1.42;;;11.30;99.90;;;;;;5006657;28;20161;-80
2023/03/31 10:29:31;;;;;;;6.93;1.40;;;11.30;99.90;;;;;;5004634;28;20046;-81
2023/03/31 10:32:14;;;;;;;;;;;11.40;99.90;;;;;;5005664;28;20065;-79
2023/03/31 10:34:41;;;;;;;;;;;11.50;99.90;;;;;;5006497;28;19988;-82
2023/03/31 10:37:11;;;;;;;3.22;1.35;;;11.60;99.90;;;;;;5005961;28;19968;-80
2023/03/31 10:39:38;;;;;;;1.48;1.05;;;11.60;99.90;;;;;;5005998;28;20038;-79
2023/03/31 10:42:03;;;;;;;4.40;1.92;;;11.70;99.90;;;;;;5004597;28;20057;-78
2023/03/31 10:44:33;;;;;;;4.28;1.42;;;11.80;99.90;;;;;;4988118;28;20409;-80
2023/03/31 10:47:14;;;;;;;1.73;0.90;;;11.80;99.90;;;;;;5005047;28;20127;-77
2023/03/31 10:49:42;;;;;;;3.83;1.30;;;11.80;99.90;;;;;;5004776;28;20687;-80
2023/03/31 10:52:26;;;;;;;8.32;2.30;;;11.90;99.90;;;;;;5006335;28;20475;-78
2023/03/31 10:54:56;;;;;;;5.65;1.20;;;11.80;99.90;;;;;;5006712;28;20093;-81
2023/03/31 10:57:37;;;;;;;2.58;1.05;;;11.90;99.90;;;;;;5003451;28;20061;-80
2023/03/31 11:00:20;;;;;;;3.42;1.90;;;11.90;99.90;;;;;;5004415;28;20400;-80
2023/03/31 11:03:23;;;;;;;3.72;1.75;;;12.00;99.90;;;;;;5006301;28;20038;-79
2023/03/31 11:05:58;;;;;;;4.10;2.17;;;12.00;99.90;;;;;;4986036;28;20046;-76
2023/03/31 11:08:46;;;;;;;2.45;1.65;;;12.10;99.90;;;;;;5003712;28;20044;-79
2023/03/31 11:11:35;;;;;;;5.20;1.70;;;12.20;99.90;;;;;;5005002;28;20137;-80
2023/03/31 11:14:30;;;;;;;2.20;1.48;;;12.30;99.90;;;;;;4993939;28;20050;-81
2023/03/31 11:17:14;;;;;;;6.72;1.38;;;12.40;99.90;;;;;;5004295;28;20065;-78
2023/03/31 11:20:11;;;;;;;3.60;0.88;;;12.40;99.90;;;;;;5004376;28;20050;-82
2023/03/31 11:22:51;;;;;;;1.77;0.75;;;12.50;99.90;;;;;;5003369;28;20038;-79
2023/03/31 11:25:27;;;;;;;2.13;0.80;;;12.50;99.90;;;;;;5003073;28;20485;-78
2023/03/31 11:28:23;;;;;;;0.98;0.88;;;12.60;99.90;;;;;;4995897;28;20238;-80
2023/03/31 11:31:27;;;;;;;1.52;1.05;;;12.60;99.90;;;;;;4984234;28;20049;-79
2023/03/31 11:33:59;;;;;;;1.20;0.80;;;12.60;99.90;;;;;;5005695;28;20054;-81
2023/03/31 11:36:51;;;;;;;;;;;12.50;99.90;;;;;;5001127;28;20072;-81
2023/03/31 11:39:50;;;;;;;3.00;0.80;;;12.50;99.90;;;;;;4998155;28;19921;-80
2023/03/31 11:42:27;;;;;;;1.45;1.35;;;12.40;99.90;;;;;;5002420;28;20395;-78
2023/03/31 11:45:03;;;;;;;3.65;0.93;;;12.30;99.90;;;;;;5004437;28;20057;-78
2023/03/31 11:47:36;;;;;;;2.35;0.90;;;12.30;99.90;;;;;;5001769;28;20046;-76
2023/03/31 11:50:25;;;;;;;5.10;1.40;;;12.30;99.90;;;;;;5002630;28;20128;-79
2023/03/31 11:53:14;;;;;;;3.70;1.10;;;12.30;99.90;;;;;;5004023;28;20057;-79
2023/03/31 11:55:40;;;;;;;1.30;1.10;;;12.30;99.90;;;;;;4996566;28;20129;-79
2023/03/31 11:58:24;;;;;;;3.72;0.63;;;12.30;99.90;;;;;;5001875;28;20156;-81
2023/03/31 12:01:06;;;;;;;4.35;1.40;;;12.30;99.90;;;;;;4986275;28;20054;-78
2023/03/31 12:03:55;;;;;;;1.67;1.00;;;12.30;99.90;;;;;;5002557;28;20053;-78
2023/03/31 12:06:25;;;;;;;4.53;0.70;;;12.30;99.90;;;;;;5003920;28;20034;-80
2023/03/31 12:09:03;;;;;;;1.25;1.13;;;12.30;99.90;;;;;;5004516;28;20049;-80
2023/03/31 12:11:38;;;;;;;1.65;1.50;;;12.30;99.90;;;;;;4983766;28;20058;-77
2023/03/31 12:14:10;;;;;;;1.10;0.88;;;12.30;99.90;;;;;;4966348;28;20085;-79
2023/03/31 12:16:46;;;;;;;5.78;1.67;;;12.30;99.90;;;;;;4982675;28;20043;-75
2023/03/31 12:19:26;;;;;;;1.10;0.50;;;12.20;99.90;;;;;;4982668;28;20046;-78
2023/03/31 12:22:09;;;;;;;2.13;1.13;;;12.20;99.90;;;;;;4972950;28;20048;-79
2023/03/31 12:24:35;;;;;;;4.38;0.88;;;12.20;99.90;;;;;;5004232;28;20103;-79
2023/03/31 12:27:13;;;;;;;3.00;1.25;;;12.20;99.90;;;;;;5001643;28;20045;-78
2023/03/31 12:29:45;;;;;;;1.63;1.33;;;12.20;99.90;;;;;;5003659;28;20058;-79
2023/03/31 12:32:21;;;;;;;2.78;1.10;;;12.20;99.90;;;;;;5002052;28;20196;-80
2023/03/31 12:34:58;;;;;;;4.95;1.40;;;12.20;99.90;;;;;;5003664;28;20050;-78
2023/03/31 12:37:50;;;;;;;0.82;0.82;;;12.20;99.90;;;;;;5002579;28;20042;-78
2023/03/31 12:40:16;;;;;;;;;;;12.10;99.90;;;;;;5004046;28;20053;-80
2023/03/31 12:42:47;;;;;;;2.58;0.73;;;12.20;99.90;;;;;;5002811;28;20292;-80
2023/03/31 12:45:16;;;;;;;4.45;1.20;;;12.20;99.90;;;;;;5002238;28;20132;-75
2023/03/31 12:48:00;;;;;;;2.58;1.10;;;12.20;99.90;;;;;;4991079;28;20248;-77
2023/03/31 12:51:23;;;;;;;5.68;2.35;;;12.20;99.90;;;;;;4984443;28;20078;-79
2023/03/31 12:54:23;;;;;;;5.78;1.90;;;12.20;99.90;;;;;;4960513;28;20137;-79
2023/03/31 12:57:20;;;;;;;12.05;0.88;;;12.20;99.90;;;;;;4981666;28;20070;-75
2023/03/31 13:00:19;;;;;;;2.85;0.95;;;12.20;99.90;;;;;;4998939;28;20065;-78
2023/03/31 13:02:46;;;;;;;5.07;1.02;;;12.20;99.90;;;;;;5014638;28;20430;-76
2023/03/31 13:05:36;;;;;;;1.77;1.35;;;12.20;99.90;;;;;;5004175;28;20061;-78
2023/03/31 13:08:07;;;;;;;5.05;1.75;;;12.20;99.90;;;;;;4992739;28;20041;-78
2023/03/31 13:10:53;;;;;;;4.55;1.25;;;12.20;99.90;;;;;;4999747;28;20038;-77
2023/03/31 13:13:19;;;;;;;2.25;1.90;;;12.30;99.90;;;;;;5000674;28;20094;-79
2023/03/31 13:15:55;;;;;;;0.77;0.77;;;12.30;99.90;;;;;;4998631;28;20041;-79
2023/03/31 13:18:22;;;;;;;3.78;1.08;;;12.30;99.90;;;;;;5000142;28;20346;-78
2023/03/31 13:21:04;;;;;;;6.22;1.30;;;12.30;99.90;;;;;;4990968;28;20058;-79